sensor_id;sensor_type;location;lat;lon;timestamp;temperature;humidity
2363;DHT22;64265;51.664;7.626;2023-07-29T00:01:03;22.80;99.90
2363;DHT22;64265;51.664;7.626;2023-07-29T00:03:30;22.80;99.90
2363;DHT22;64265;51.664;7.626;2023-07-29T00:05:57;22.80;99.90
2363;DHT22;64265;51.664;7.626;2023-07-29T00:08:24;22.80;99.90
2363;DHT22;64265;51.664;7.626;2023-07-29T00:10:51;22.80;99.90
2363;DHT22;64265;51.664;7.626;2023-07-29T00:13:19;22.80;99.90
2363;DHT22;64265;51.664;7.626;2023-07-29T00:15:45;22.70;99.90
2363;DHT22;64265;51.664;7.626;2023-07-29T00:18:12;22.70;99.90
2363;DHT22;64265;51.664;7.626;2023-07-29T00:20:39;22.70;99.90
2363;DHT22;64265;51.664;7.626;2023-07-29T00:23:05;22.70;99.90
2363;DHT22;64265;51.664;7.626;2023-07-29T00:25:32;22.70;99.90
2363;DHT22;64265;51.664;7.626;2023-07-29T00:27:59;22.70;99.90
2363;DHT22;64265;51.664;7.626;2023-07-29T00:30:27;22.70;99.90
2363;DHT22;64265;51.664;7.626;2023-07-29T00:32:53;22.70;99.90
2363;DHT22;64265;51.664;7.626;2023-07-29T00:35:20;22.70;99.90
2363;DHT22;64265;51.664;7.626;2023-07-29T00:37:47;22.70;99.90
2363;DHT22;64265;51.664;7.626;2023-07-29T00:40:15;22.70;99.90
2363;DHT22;64265;51.664;7.626;2023-07-29T00:42:45;22.70;99.90
2363;DHT22;64265;51.664;7.626;2023-07-29T00:45:12;22.70;99.90
2363;DHT22;64265;51.664;7.626;2023-07-29T00:47:41;22.70;99.90
2363;DHT22;64265;51.664;7.626;2023-07-29T00:50:09;22.70;99.90
2363;DHT22;64265;51.664;7.626;2023-07-29T00:52:37;22.70;99.90
2363;DHT22;64265;51.664;7.626;2023-07-29T00:55:05;22.70;99.90
2363;DHT22;64265;51.664;7.626;2023-07-29T00:57:32;22.70;99.90
2363;DHT22;64265;51.664;7.626;2023-07-29T00:59:59;22.70;99.90
2363;DHT22;64265;51.664;7.626;2023-07-29T01:02:26;22.70;99.90
2363;DHT22;64265;51.664;7.626;2023-07-29T01:04:57;22.70;99.90
2363;DHT22;64265;51.664;7.626;2023-07-29T01:07:30;22.60;99.90
2363;DHT22;64265;51.664;7.626;2023-07-29T01:10:02;22.60;99.90
2363;DHT22;64265;51.664;7.626;2023-07-29T01:12:35;22.60;99.90
2363;DHT22;64265;51.664;7.626;2023-07-29T01:15:10;22.60;99.90
2363;DHT22;64265;51.664;7.626;2023-07-29T01:17:42;22.60;99.90
2363;DHT22;64265;51.664;7.626;2023-07-29T01:20:13;22.60;99.90
2363;DHT22;64265;51.664;7.626;2023-07-29T01:22:41;22.70;99.90
2363;DHT22;64265;51.664;7.626;2023-07-29T01:25:09;22.60;99.90
2363;DHT22;64265;51.664;7.626;2023-07-29T01:27:36;22.60;99.90
2363;DHT22;64265;51.664;7.626;2023-07-29T01:30:04;22.60;99.90
2363;DHT22;64265;51.664;7.626;2023-07-29T01:32:36;22.60;99.90
2363;DHT22;64265;51.664;7.626;2023-07-29T01:35:13;22.60;99.90
2363;DHT22;64265;51.664;7.626;2023-07-29T01:37:41;22.60;99.90
2363;DHT22;64265;51.664;7.626;2023-07-29T01:40:12;22.60;99.90
2363;DHT22;64265;51.664;7.626;2023-07-29T01:42:39;22.60;99.90
2363;DHT22;64265;51.664;7.626;2023-07-29T01:45:06;22.60;99.90
2363;DHT22;64265;51.664;7.626;2023-07-29T01:47:33;22.60;99.90
2363;DHT22;64265;51.664;7.626;2023-07-29T01:50:00;22.60;99.90
2363;DHT22;64265;51.664;7.626;2023-07-29T01:52:27;22.60;99.90
2363;DHT22;64265;51.664;7.626;2023-07-29T01:54:53;22.60;99.90
2363;DHT22;64265;51.664;7.626;2023-07-29T01:57:21;22.60;99.90
2363;DHT22;64265;51.664;7.626;2023-07-29T01:59:48;22.60;99.90
2363;DHT22;64265;51.664;7.626;2023-07-29T02:02:15;22.60;99.90
2363;DHT22;64265;51.664;7.626;2023-07-29T02:04:41;22.60;99.90
2363;DHT22;64265;51.664;7.626;2023-07-29T02:07:08;22.60;99.90
2363;DHT22;64265;51.664;7.626;2023-07-29T02:09:35;22.50;99.90
2363;DHT22;64265;51.664;7.626;2023-07-29T02:12:02;22.50;99.90
2363;DHT22;64265;51.664;7.626;2023-07-29T02:14:30;22.50;99.90
2363;DHT22;64265;51.664;7.626;2023-07-29T02:16:57;22.60;99.90
2363;DHT22;64265;51.664;7.626;2023-07-29T02:19:23;22.50;99.90
2363;DHT22;64265;51.664;7.626;2023-07-29T02:21:50;22.50;99.90
2363;DHT22;64265;51.664;7.626;2023-07-29T02:24:17;22.50;99.90
2363;DHT22;64265;51.664;7.626;2023-07-29T02:26:44;22.50;99.90
2363;DHT22;64265;51.664;7.626;2023-07-29T02:29:10;22.50;99.90
2363;DHT22;64265;51.664;7.626;2023-07-29T02:31:38;22.50;99.90
2363;DHT22;64265;51.664;7.626;2023-07-29T02:34:05;22.50;99.90
2363;DHT22;64265;51.664;7.626;2023-07-29T02:36:32;22.50;99.90
2363;DHT22;64265;51.664;7.626;2023-07-29T02:38:58;22.50;99.90
2363;DHT22;64265;51.664;7.626;2023-07-29T02:41:25;22.50;99.90
2363;DHT22;64265;51.664;7.626;2023-07-29T02:43:52;22.50;99.90
2363;DHT22;64265;51.664;7.626;2023-07-29T02:46:18;22.50;99.90
2363;DHT22;64265;51.664;7.626;2023-07-29T02:48:46;22.50;99.90
2363;DHT22;64265;51.664;7.626;2023-07-29T02:51:13;22.50;99.90
2363;DHT22;64265;51.664;7.626;2023-07-29T02:53:40;22.50;99.90
2363;DHT22;64265;51.664;7.626;2023-07-29T02:56:07;22.50;99.90
2363;DHT22;64265;51.664;7.626;2023-07-29T02:58:34;22.50;99.90
2363;DHT22;64265;51.664;7.626;2023-07-29T03:01:01;22.50;99.90
2363;DHT22;64265;51.664;7.626;2023-07-29T03:03:28;22.50;99.90
2363;DHT22;64265;51.664;7.626;2023-07-29T03:05:59;22.50;99.90
2363;DHT22;64265;51.664;7.626;2023-07-29T03:08:26;22.50;99.90
2363;DHT22;64265;51.664;7.626;2023-07-29T03:10:53;22.50;99.90
2363;DHT22;64265;51.664;7.626;2023-07-29T03:13:20;22.50;99.90
2363;DHT22;64265;51.664;7.626;2023-07-29T03:15:47;22.50;99.90
2363;DHT22;64265;51.664;7.626;2023-07-29T03:18:14;22.50;99.90
2363;DHT22;64265;51.664;7.626;2023-07-29T03:20:41;22.50;99.90
2363;DHT22;64265;51.664;7.626;2023-07-29T03:23:09;22.50;99.90
2363;DHT22;64265;51.664;7.626;2023-07-29T03:25:35;22.50;99.90
2363;DHT22;64265;51.664;7.626;2023-07-29T03:28:02;22.50;99.90
2363;DHT22;64265;51.664;7.626;2023-07-29T03:30:29;22.50;99.90
2363;DHT22;64265;51.664;7.626;2023-07-29T03:32:56;22.50;99.90
2363;DHT22;64265;51.664;7.626;2023-07-29T03:35:23;22.50;99.90
2363;DHT22;64265;51.664;7.626;2023-07-29T03:37:49;22.40;99.90
2363;DHT22;64265;51.664;7.626;2023-07-29T03:40:18;22.50;99.90
2363;DHT22;64265;51.664;7.626;2023-07-29T03:42:45;22.40;99.90
2363;DHT22;64265;51.664;7.626;2023-07-29T03:45:11;22.40;99.90
2363;DHT22;64265;51.664;7.626;2023-07-29T03:47:38;22.40;99.90
2363;DHT22;64265;51.664;7.626;2023-07-29T03:50:06;22.40;99.90
2363;DHT22;64265;51.664;7.626;2023-07-29T03:52:32;22.40;99.90
2363;DHT22;64265;51.664;7.626;2023-07-29T03:54:59;22.40;99.90
2363;DHT22;64265;51.664;7.626;2023-07-29T03:57:27;22.40;99.90
2363;DHT22;64265;51.664;7.626;2023-07-29T03:59:55;22.40;99.90
2363;DHT22;64265;51.664;7.626;2023-07-29T04:02:21;22.40;99.90
2363;DHT22;64265;51.664;7.626;2023-07-29T04:04:48;22.40;99.90
2363;DHT22;64265;51.664;7.626;2023-07-29T04:07:15;22.40;99.90
2363;DHT22;64265;51.664;7.626;2023-07-29T04:09:42;22.40;99.90
2363;DHT22;64265;51.664;7.626;2023-07-29T04:12:09;22.40;99.90
2363;DHT22;64265;51.664;7.626;2023-07-29T04:14:37;22.40;99.90
2363;DHT22;64265;51.664;7.626;2023-07-29T04:17:04;22.40;99.90
2363;DHT22;64265;51.664;7.626;2023-07-29T04:19:31;22.40;99.90
2363;DHT22;64265;51.664;7.626;2023-07-29T04:21:58;22.40;99.90
2363;DHT22;64265;51.664;7.626;2023-07-29T04:24:25;22.40;99.90
2363;DHT22;64265;51.664;7.626;2023-07-29T04:26:51;22.40;99.90
2363;DHT22;64265;51.664;7.626;2023-07-29T04:29:18;22.40;99.90
2363;DHT22;64265;51.664;7.626;2023-07-29T04:31:46;22.40;99.90
2363;DHT22;64265;51.664;7.626;2023-07-29T04:34:13;22.40;99.90
2363;DHT22;64265;51.664;7.626;2023-07-29T04:36:40;22.40;99.90
2363;DHT22;64265;51.664;7.626;2023-07-29T04:39:06;22.40;99.90
2363;DHT22;64265;51.664;7.626;2023-07-29T04:41:33;22.40;99.90
2363;DHT22;64265;51.664;7.626;2023-07-29T04:44:00;22.40;99.90
2363;DHT22;64265;51.664;7.626;2023-07-29T04:46:27;22.40;99.90
2363;DHT22;64265;51.664;7.626;2023-07-29T04:48:55;22.40;99.90
2363;DHT22;64265;51.664;7.626;2023-07-29T04:51:22;22.40;99.90
2363;DHT22;64265;51.664;7.626;2023-07-29T04:53:49;22.40;99.90
2363;DHT22;64265;51.664;7.626;2023-07-29T04:56:16;22.40;99.90
2363;DHT22;64265;51.664;7.626;2023-07-29T04:58:43;22.40;99.90
2363;DHT22;64265;51.664;7.626;2023-07-29T05:01:10;22.40;99.90
2363;DHT22;64265;51.664;7.626;2023-07-29T05:03:36;22.40;99.90
2363;DHT22;64265;51.664;7.626;2023-07-29T05:06:06;22.40;99.90
2363;DHT22;64265;51.664;7.626;2023-07-29T05:08:33;22.30;99.90
2363;DHT22;64265;51.664;7.626;2023-07-29T05:11:00;22.40;99.90
2363;DHT22;64265;51.664;7.626;2023-07-29T05:13:27;22.40;99.90
2363;DHT22;64265;51.664;7.626;2023-07-29T05:15:53;22.40;99.90
2363;DHT22;64265;51.664;7.626;2023-07-29T05:18:20;22.30;99.90
2363;DHT22;64265;51.664;7.626;2023-07-29T05:20:47;22.30;99.90
2363;DHT22;64265;51.664;7.626;2023-07-29T05:23:15;22.40;99.90
2363;DHT22;64265;51.664;7.626;2023-07-29T05:25:42;22.30;99.90
2363;DHT22;64265;51.664;7.626;2023-07-29T05:28:09;22.40;99.90
2363;DHT22;64265;51.664;7.626;2023-07-29T05:30:35;22.40;99.90
2363;DHT22;64265;51.664;7.626;2023-07-29T05:33:05;22.40;99.90
2363;DHT22;64265;51.664;7.626;2023-07-29T05:35:33;22.30;99.90
2363;DHT22;64265;51.664;7.626;2023-07-29T05:37:59;22.30;99.90
2363;DHT22;64265;51.664;7.626;2023-07-29T05:40:27;22.40;99.90
2363;DHT22;64265;51.664;7.626;2023-07-29T05:42:54;22.30;99.90
2363;DHT22;64265;51.664;7.626;2023-07-29T05:45:21;22.30;99.90
2363;DHT22;64265;51.664;7.626;2023-07-29T05:47:48;22.30;99.90
2363;DHT22;64265;51.664;7.626;2023-07-29T05:50:15;22.30;99.90
2363;DHT22;64265;51.664;7.626;2023-07-29T05:52:42;22.40;99.90
2363;DHT22;64265;51.664;7.626;2023-07-29T05:55:09;22.30;99.90
2363;DHT22;64265;51.664;7.626;2023-07-29T05:57:37;22.30;99.90
2363;DHT22;64265;51.664;7.626;2023-07-29T06:00:05;22.30;99.90
2363;DHT22;64265;51.664;7.626;2023-07-29T06:02:32;22.30;99.90
2363;DHT22;64265;51.664;7.626;2023-07-29T06:04:58;22.30;99.90
2363;DHT22;64265;51.664;7.626;2023-07-29T06:07:25;22.30;99.90
2363;DHT22;64265;51.664;7.626;2023-07-29T06:09:55;22.40;99.90
2363;DHT22;64265;51.664;7.626;2023-07-29T06:12:23;22.30;99.90
2363;DHT22;64265;51.664;7.626;2023-07-29T06:14:51;22.30;99.90
2363;DHT22;64265;51.664;7.626;2023-07-29T06:17:17;22.30;99.90
2363;DHT22;64265;51.664;7.626;2023-07-29T06:19:44;22.30;99.90
2363;DHT22;64265;51.664;7.626;2023-07-29T06:22:11;22.30;99.90
2363;DHT22;64265;51.664;7.626;2023-07-29T06:24:37;22.30;99.90
2363;DHT22;64265;51.664;7.626;2023-07-29T06:27:05;22.30;99.90
2363;DHT22;64265;51.664;7.626;2023-07-29T06:29:31;22.30;99.90
2363;DHT22;64265;51.664;7.626;2023-07-29T06:32:00;22.30;99.90
2363;DHT22;64265;51.664;7.626;2023-07-29T06:34:27;22.30;99.90
2363;DHT22;64265;51.664;7.626;2023-07-29T06:36:53;22.30;99.90
2363;DHT22;64265;51.664;7.626;2023-07-29T06:39:20;22.30;99.90
2363;DHT22;64265;51.664;7.626;2023-07-29T06:41:47;22.30;99.90
2363;DHT22;64265;51.664;7.626;2023-07-29T06:44:13;22.30;99.90
2363;DHT22;64265;51.664;7.626;2023-07-29T06:46:40;22.30;99.90
2363;DHT22;64265;51.664;7.626;2023-07-29T06:49:08;22.40;99.90
2363;DHT22;64265;51.664;7.626;2023-07-29T06:51:35;22.30;99.90
2363;DHT22;64265;51.664;7.626;2023-07-29T06:54:02;22.30;99.90
2363;DHT22;64265;51.664;7.626;2023-07-29T06:56:29;22.30;99.90
2363;DHT22;64265;51.664;7.626;2023-07-29T06:58:56;22.30;99.90
2363;DHT22;64265;51.664;7.626;2023-07-29T07:01:22;22.30;99.90
2363;DHT22;64265;51.664;7.626;2023-07-29T07:03:49;22.30;99.90
2363;DHT22;64265;51.664;7.626;2023-07-29T07:06:21;22.30;99.90
2363;DHT22;64265;51.664;7.626;2023-07-29T07:08:49;22.30;99.90
2363;DHT22;64265;51.664;7.626;2023-07-29T07:11:17;22.30;99.90
2363;DHT22;64265;51.664;7.626;2023-07-29T07:13:44;22.30;99.90
2363;DHT22;64265;51.664;7.626;2023-07-29T07:16:11;22.30;99.90
2363;DHT22;64265;51.664;7.626;2023-07-29T07:18:37;22.30;99.90
2363;DHT22;64265;51.664;7.626;2023-07-29T07:21:04;22.30;99.90
2363;DHT22;64265;51.664;7.626;2023-07-29T07:23:32;22.30;99.90
2363;DHT22;64265;51.664;7.626;2023-07-29T07:25:59;22.30;99.90
2363;DHT22;64265;51.664;7.626;2023-07-29T07:28:26;22.30;99.90
2363;DHT22;64265;51.664;7.626;2023-07-29T07:30:52;22.30;99.90
2363;DHT22;64265;51.664;7.626;2023-07-29T07:33:21;22.30;99.90
2363;DHT22;64265;51.664;7.626;2023-07-29T07:35:47;22.30;99.90
2363;DHT22;64265;51.664;7.626;2023-07-29T07:38:14;22.30;99.90
2363;DHT22;64265;51.664;7.626;2023-07-29T07:40:42;22.30;99.90
2363;DHT22;64265;51.664;7.626;2023-07-29T07:43:09;22.30;99.90
2363;DHT22;64265;51.664;7.626;2023-07-29T07:45:36;22.30;99.90
2363;DHT22;64265;51.664;7.626;2023-07-29T07:48:03;22.30;99.90
2363;DHT22;64265;51.664;7.626;2023-07-29T07:50:30;22.30;99.90
2363;DHT22;64265;51.664;7.626;2023-07-29T07:52:58;22.30;99.90
2363;DHT22;64265;51.664;7.626;2023-07-29T07:55:24;22.40;99.90
2363;DHT22;64265;51.664;7.626;2023-07-29T07:57:53;22.30;99.90
2363;DHT22;64265;51.664;7.626;2023-07-29T08:00:20;22.30;99.90
2363;DHT22;64265;51.664;7.626;2023-07-29T08:02:47;22.30;99.90
2363;DHT22;64265;51.664;7.626;2023-07-29T08:05:13;22.30;99.90
2363;DHT22;64265;51.664;7.626;2023-07-29T08:07:40;22.30;99.90
2363;DHT22;64265;51.664;7.626;2023-07-29T08:10:07;22.40;99.90
2363;DHT22;64265;51.664;7.626;2023-07-29T08:12:34;22.30;99.90
2363;DHT22;64265;51.664;7.626;2023-07-29T08:15:03;22.30;99.90
2363;DHT22;64265;51.664;7.626;2023-07-29T08:17:30;22.30;99.90
2363;DHT22;64265;51.664;7.626;2023-07-29T08:19:56;22.30;99.90
2363;DHT22;64265;51.664;7.626;2023-07-29T08:22:23;22.30;99.90
2363;DHT22;64265;51.664;7.626;2023-07-29T08:24:50;22.30;99.90
2363;DHT22;64265;51.664;7.626;2023-07-29T08:27:17;22.30;99.90
2363;DHT22;64265;51.664;7.626;2023-07-29T08:29:44;22.30;99.90
2363;DHT22;64265;51.664;7.626;2023-07-29T08:32:12;22.40;99.90
2363;DHT22;64265;51.664;7.626;2023-07-29T08:34:39;22.40;99.90
2363;DHT22;64265;51.664;7.626;2023-07-29T08:37:06;22.40;99.90
2363;DHT22;64265;51.664;7.626;2023-07-29T08:39:33;22.40;99.90
2363;DHT22;64265;51.664;7.626;2023-07-29T08:42:02;22.40;99.90
2363;DHT22;64265;51.664;7.626;2023-07-29T08:44:35;22.40;99.90
2363;DHT22;64265;51.664;7.626;2023-07-29T08:47:02;22.40;99.90
2363;DHT22;64265;51.664;7.626;2023-07-29T08:49:31;22.40;99.90
2363;DHT22;64265;51.664;7.626;2023-07-29T08:51:58;22.40;99.90
2363;DHT22;64265;51.664;7.626;2023-07-29T08:54:26;22.40;99.90
2363;DHT22;64265;51.664;7.626;2023-07-29T08:56:52;22.40;99.90
2363;DHT22;64265;51.664;7.626;2023-07-29T08:59:20;22.40;99.90
2363;DHT22;64265;51.664;7.626;2023-07-29T09:01:47;22.40;99.90
2363;DHT22;64265;51.664;7.626;2023-07-29T09:04:14;22.40;99.90
2363;DHT22;64265;51.664;7.626;2023-07-29T09:06:43;22.40;99.90
2363;DHT22;64265;51.664;7.626;2023-07-29T09:09:10;22.40;99.90
2363;DHT22;64265;51.664;7.626;2023-07-29T09:11:37;22.40;99.90
2363;DHT22;64265;51.664;7.626;2023-07-29T09:14:04;22.40;99.90
2363;DHT22;64265;51.664;7.626;2023-07-29T09:16:31;22.40;99.90
2363;DHT22;64265;51.664;7.626;2023-07-29T09:19:01;22.40;99.90
2363;DHT22;64265;51.664;7.626;2023-07-29T09:21:29;22.40;99.90
2363;DHT22;64265;51.664;7.626;2023-07-29T09:24:02;22.40;99.90
2363;DHT22;64265;51.664;7.626;2023-07-29T09:26:29;22.40;99.90
2363;DHT22;64265;51.664;7.626;2023-07-29T09:28:58;22.40;99.90
2363;DHT22;64265;51.664;7.626;2023-07-29T09:31:26;22.40;99.90
2363;DHT22;64265;51.664;7.626;2023-07-29T09:33:56;22.40;99.90
2363;DHT22;64265;51.664;7.626;2023-07-29T09:36:24;22.40;99.90
2363;DHT22;64265;51.664;7.626;2023-07-29T09:38:53;22.40;99.90
2363;DHT22;64265;51.664;7.626;2023-07-29T09:41:23;22.40;99.90
2363;DHT22;64265;51.664;7.626;2023-07-29T09:43:55;22.40;99.90
2363;DHT22;64265;51.664;7.626;2023-07-29T09:46:24;22.40;99.90
2363;DHT22;64265;51.664;7.626;2023-07-29T09:48:53;22.40;99.90
2363;DHT22;64265;51.664;7.626;2023-07-29T09:51:21;22.40;99.90
2363;DHT22;64265;51.664;7.626;2023-07-29T09:53:49;22.50;99.90
2363;DHT22;64265;51.664;7.626;2023-07-29T09:56:17;22.50;99.90
2363;DHT22;64265;51.664;7.626;2023-07-29T09:58:45;22.40;99.90
2363;DHT22;64265;51.664;7.626;2023-07-29T10:01:12;22.40;99.90
2363;DHT22;64265;51.664;7.626;2023-07-29T10:03:40;22.40;99.90
2363;DHT22;64265;51.664;7.626;2023-07-29T10:06:07;22.40;99.90
2363;DHT22;64265;51.664;7.626;2023-07-29T10:08:34;22.40;99.90
2363;DHT22;64265;51.664;7.626;2023-07-29T10:11:05;22.40;99.90
2363;DHT22;64265;51.664;7.626;2023-07-29T10:13:33;22.50;99.90
2363;DHT22;64265;51.664;7.626;2023-07-29T10:16:01;22.50;99.90
2363;DHT22;64265;51.664;7.626;2023-07-29T10:18:29;22.50;99.90
2363;DHT22;64265;51.664;7.626;2023-07-29T10:20:57;22.50;99.90
2363;DHT22;64265;51.664;7.626;2023-07-29T10:23:25;22.50;99.90
2363;DHT22;64265;51.664;7.626;2023-07-29T10:25:57;22.50;99.90
2363;DHT22;64265;51.664;7.626;2023-07-29T10:28:26;22.50;99.90
2363;DHT22;64265;51.664;7.626;2023-07-29T10:30:56;22.50;99.90
2363;DHT22;64265;51.664;7.626;2023-07-29T10:33:25;22.50;99.90
2363;DHT22;64265;51.664;7.626;2023-07-29T10:35:53;22.50;99.90
2363;DHT22;64265;51.664;7.626;2023-07-29T10:38:21;22.50;99.90
2363;DHT22;64265;51.664;7.626;2023-07-29T10:40:51;22.50;99.90
2363;DHT22;64265;51.664;7.626;2023-07-29T10:43:24;22.50;99.90
2363;DHT22;64265;51.664;7.626;2023-07-29T10:45:51;22.50;99.90
2363;DHT22;64265;51.664;7.626;2023-07-29T10:48:43;22.50;99.90
2363;DHT22;64265;51.664;7.626;2023-07-29T10:51:23;22.50;99.90
2363;DHT22;64265;51.664;7.626;2023-07-29T10:53:52;22.50;99.90
2363;DHT22;64265;51.664;7.626;2023-07-29T10:56:28;22.50;99.90
2363;DHT22;64265;51.664;7.626;2023-07-29T10:58:57;22.60;99.90
2363;DHT22;64265;51.664;7.626;2023-07-29T11:01:28;22.60;99.90
2363;DHT22;64265;51.664;7.626;2023-07-29T11:04:22;22.60;99.90
2363;DHT22;64265;51.664;7.626;2023-07-29T11:07:19;22.60;99.90
2363;DHT22;64265;51.664;7.626;2023-07-29T11:09:59;22.70;99.90
2363;DHT22;64265;51.664;7.626;2023-07-29T11:15:17;22.70;99.90
2363;DHT22;64265;51.664;7.626;2023-07-29T11:17:45;22.70;99.90
2363;DHT22;64265;51.664;7.626;2023-07-29T11:20:14;22.70;99.90
2363;DHT22;64265;51.664;7.626;2023-07-29T11:22:42;22.80;99.90
2363;DHT22;64265;51.664;7.626;2023-07-29T11:25:11;22.80;99.90
2363;DHT22;64265;51.664;7.626;2023-07-29T11:27:38;22.80;99.90
2363;DHT22;64265;51.664;7.626;2023-07-29T11:30:06;22.80;99.90
2363;DHT22;64265;51.664;7.626;2023-07-29T11:32:35;22.90;99.90
2363;DHT22;64265;51.664;7.626;2023-07-29T11:35:03;22.90;99.90
2363;DHT22;64265;51.664;7.626;2023-07-29T11:37:33;22.90;99.90
2363;DHT22;64265;51.664;7.626;2023-07-29T11:40:00;22.90;99.90
2363;DHT22;64265;51.664;7.626;2023-07-29T11:42:28;22.90;99.90
2363;DHT22;64265;51.664;7.626;2023-07-29T11:44:57;23.00;99.90
2363;DHT22;64265;51.664;7.626;2023-07-29T11:47:24;23.00;99.90
2363;DHT22;64265;51.664;7.626;2023-07-29T11:49:51;23.00;99.90
2363;DHT22;64265;51.664;7.626;2023-07-29T11:52:19;23.10;99.90
2363;DHT22;64265;51.664;7.626;2023-07-29T11:54:49;23.10;99.90
2363;DHT22;64265;51.664;7.626;2023-07-29T11:57:17;23.10;99.90
2363;DHT22;64265;51.664;7.626;2023-07-29T11:59:45;23.20;99.90
2363;DHT22;64265;51.664;7.626;2023-07-29T12:02:14;23.20;99.90
2363;DHT22;64265;51.664;7.626;2023-07-29T12:04:44;23.20;99.90
2363;DHT22;64265;51.664;7.626;2023-07-29T12:07:13;23.30;99.90
2363;DHT22;64265;51.664;7.626;2023-07-29T12:09:40;23.30;99.90
2363;DHT22;64265;51.664;7.626;2023-07-29T12:12:09;23.30;99.90
2363;DHT22;64265;51.664;7.626;2023-07-29T12:14:36;23.30;99.90
2363;DHT22;64265;51.664;7.626;2023-07-29T12:17:05;23.40;99.90
2363;DHT22;64265;51.664;7.626;2023-07-29T12:19:33;23.40;99.90
2363;DHT22;64265;51.664;7.626;2023-07-29T12:22:00;23.40;99.90
2363;DHT22;64265;51.664;7.626;2023-07-29T12:24:29;23.40;99.90
2363;DHT22;64265;51.664;7.626;2023-07-29T12:26:55;23.40;99.90
2363;DHT22;64265;51.664;7.626;2023-07-29T12:29:24;23.50;99.90
2363;DHT22;64265;51.664;7.626;2023-07-29T12:31:57;23.50;99.90
2363;DHT22;64265;51.664;7.626;2023-07-29T12:34:26;23.50;99.90
2363;DHT22;64265;51.664;7.626;2023-07-29T12:36:54;23.50;99.90
2363;DHT22;64265;51.664;7.626;2023-07-29T12:39:22;23.50;99.90
2363;DHT22;64265;51.664;7.626;2023-07-29T12:41:50;23.50;99.90
2363;DHT22;64265;51.664;7.626;2023-07-29T12:44:17;23.50;99.90
2363;DHT22;64265;51.664;7.626;2023-07-29T12:46:45;23.50;99.90
2363;DHT22;64265;51.664;7.626;2023-07-29T12:49:12;23.50;99.90
2363;DHT22;64265;51.664;7.626;2023-07-29T12:51:38;23.60;99.90
2363;DHT22;64265;51.664;7.626;2023-07-29T12:54:05;23.60;99.90
2363;DHT22;64265;51.664;7.626;2023-07-29T12:56:33;23.60;99.90
2363;DHT22;64265;51.664;7.626;2023-07-29T12:59:00;23.70;99.90
2363;DHT22;64265;51.664;7.626;2023-07-29T13:01:27;23.70;99.90
2363;DHT22;64265;51.664;7.626;2023-07-29T13:03:56;23.70;99.90
2363;DHT22;64265;51.664;7.626;2023-07-29T13:06:23;23.70;99.90
2363;DHT22;64265;51.664;7.626;2023-07-29T13:08:50;23.70;99.90
2363;DHT22;64265;51.664;7.626;2023-07-29T13:11:17;23.70;99.90
2363;DHT22;64265;51.664;7.626;2023-07-29T13:13:43;23.80;99.90
2363;DHT22;64265;51.664;7.626;2023-07-29T13:16:11;23.80;99.90
2363;DHT22;64265;51.664;7.626;2023-07-29T13:18:37;23.80;99.90
2363;DHT22;64265;51.664;7.626;2023-07-29T13:21:06;23.80;99.90
2363;DHT22;64265;51.664;7.626;2023-07-29T13:23:33;23.80;99.90
2363;DHT22;64265;51.664;7.626;2023-07-29T13:25:59;23.90;99.90
2363;DHT22;64265;51.664;7.626;2023-07-29T13:28:26;23.90;99.90
2363;DHT22;64265;51.664;7.626;2023-07-29T13:30:53;23.90;99.90
2363;DHT22;64265;51.664;7.626;2023-07-29T13:33:20;23.90;99.90
2363;DHT22;64265;51.664;7.626;2023-07-29T13:35:46;23.90;99.90
2363;DHT22;64265;51.664;7.626;2023-07-29T13:38:14;23.90;99.90
2363;DHT22;64265;51.664;7.626;2023-07-29T13:40:41;23.90;99.90
2363;DHT22;64265;51.664;7.626;2023-07-29T13:43:08;23.90;99.90
2363;DHT22;64265;51.664;7.626;2023-07-29T13:45:35;23.90;99.90
2363;DHT22;64265;51.664;7.626;2023-07-29T13:48:02;23.90;99.90
2363;DHT22;64265;51.664;7.626;2023-07-29T13:50:28;23.90;99.90
2363;DHT22;64265;51.664;7.626;2023-07-29T13:52:55;24.00;99.90
2363;DHT22;64265;51.664;7.626;2023-07-29T13:55:23;24.00;99.90
2363;DHT22;64265;51.664;7.626;2023-07-29T13:57:50;24.00;99.90
2363;DHT22;64265;51.664;7.626;2023-07-29T14:00:17;24.00;99.90
2363;DHT22;64265;51.664;7.626;2023-07-29T14:02:43;24.00;99.90
2363;DHT22;64265;51.664;7.626;2023-07-29T14:05:10;24.00;99.90
2363;DHT22;64265;51.664;7.626;2023-07-29T14:07:38;24.00;99.90
2363;DHT22;64265;51.664;7.626;2023-07-29T14:10:05;24.00;99.90
2363;DHT22;64265;51.664;7.626;2023-07-29T14:12:33;24.00;99.90
2363;DHT22;64265;51.664;7.626;2023-07-29T14:15:00;24.00;99.90
2363;DHT22;64265;51.664;7.626;2023-07-29T14:17:27;24.00;99.90
2363;DHT22;64265;51.664;7.626;2023-07-29T14:19:54;24.00;99.90
2363;DHT22;64265;51.664;7.626;2023-07-29T14:22:20;23.90;99.90
2363;DHT22;64265;51.664;7.626;2023-07-29T14:24:47;24.00;99.90
2363;DHT22;64265;51.664;7.626;2023-07-29T14:27:14;23.90;99.90
2363;DHT22;64265;51.664;7.626;2023-07-29T14:29:43;23.90;99.90
2363;DHT22;64265;51.664;7.626;2023-07-29T14:32:10;23.90;99.90
2363;DHT22;64265;51.664;7.626;2023-07-29T14:34:37;23.90;99.90
2363;DHT22;64265;51.664;7.626;2023-07-29T14:37:05;23.90;99.90
2363;DHT22;64265;51.664;7.626;2023-07-29T14:39:31;23.90;99.90
2363;DHT22;64265;51.664;7.626;2023-07-29T14:41:58;23.90;99.90
2363;DHT22;64265;51.664;7.626;2023-07-29T14:44:25;23.90;99.90
2363;DHT22;64265;51.664;7.626;2023-07-29T14:46:53;23.90;99.90
2363;DHT22;64265;51.664;7.626;2023-07-29T14:49:20;23.90;99.90
2363;DHT22;64265;51.664;7.626;2023-07-29T14:51:47;23.90;99.90
2363;DHT22;64265;51.664;7.626;2023-07-29T14:54:14;23.80;99.90
2363;DHT22;64265;51.664;7.626;2023-07-29T14:56:40;23.80;99.90
2363;DHT22;64265;51.664;7.626;2023-07-29T14:59:07;23.80;99.90
2363;DHT22;64265;51.664;7.626;2023-07-29T15:01:34;23.80;99.90
2363;DHT22;64265;51.664;7.626;2023-07-29T15:04:02;23.80;99.90
2363;DHT22;64265;51.664;7.626;2023-07-29T15:06:29;23.80;99.90
2363;DHT22;64265;51.664;7.626;2023-07-29T15:08:56;23.80;99.90
2363;DHT22;64265;51.664;7.626;2023-07-29T15:11:23;23.80;99.90
2363;DHT22;64265;51.664;7.626;2023-07-29T15:13:49;23.80;99.90
2363;DHT22;64265;51.664;7.626;2023-07-29T15:16:16;23.80;99.90
2363;DHT22;64265;51.664;7.626;2023-07-29T15:18:43;23.80;99.90
2363;DHT22;64265;51.664;7.626;2023-07-29T15:21:11;23.80;99.90
2363;DHT22;64265;51.664;7.626;2023-07-29T15:23:38;23.80;99.90
2363;DHT22;64265;51.664;7.626;2023-07-29T15:26:05;23.80;99.90
2363;DHT22;64265;51.664;7.626;2023-07-29T15:28:32;23.90;99.90
2363;DHT22;64265;51.664;7.626;2023-07-29T15:30:59;23.80;99.90
2363;DHT22;64265;51.664;7.626;2023-07-29T15:33:25;23.80;99.90
2363;DHT22;64265;51.664;7.626;2023-07-29T15:35:52;23.80;99.90
2363;DHT22;64265;51.664;7.626;2023-07-29T15:38:20;23.80;99.90
2363;DHT22;64265;51.664;7.626;2023-07-29T15:40:47;23.80;99.90
2363;DHT22;64265;51.664;7.626;2023-07-29T15:43:16;23.90;99.90
2363;DHT22;64265;51.664;7.626;2023-07-29T15:45:43;23.80;99.90
2363;DHT22;64265;51.664;7.626;2023-07-29T15:48:11;23.90;99.90
2363;DHT22;64265;51.664;7.626;2023-07-29T15:50:38;23.90;99.90